Airfield :







YOU CAN JOIN US ON...

 
LOGIN :

Register | Disclaimer

   EN    FR    IT 

 









Legend :    VFR   Marginal VFR   IFR   Intensive IFR   Very Intensive IFR
Visi :
Ceiling :
>= 8 km
>= 3000ft
5 to 8 km
1000 to 3000 ft
1500m to 5 km
500 to 1000 ft
800 to 1500m
200 to 500 ft
< 800m
< 200 ft
Symbols :   Thunderstorms  Fog  Heavy snow  Heavy precipitations  Wind > 20 kt






- Airport Elevation : 488 ft
- IATA code : EEN


KEEN - Dillant Hopkins

CURRENT METAR :
  • 192256Z AUTO 00000KT 10SM SCT013 OVC022 03/02 A2985 RMK AO2 SLP115 T00280022 $

EXPIRED METARs :
  • 192156Z AUTO 00000KT 10SM FEW013 OVC024 03/02 A2981 RMK AO2 SLP102 T00280022 $
  • 192108Z AUTO 05003KT 10SM FEW013 OVC024 04/03 A2978 RMK AO2 $
  • 192056Z AUTO 00000KT 10SM BKN013 OVC022 04/03 A2978 RMK AO2 SLP092 T00390033 53010 $
  • 192011Z AUTO 00000KT 10SM OVC011 04/04 A2977 RMK AO2 $
  • 191956Z AUTO 00000KT 10SM OVC009 04/03 A2977 RMK AO2 SLP089 T00390033 $

TAF N/A



MET'MAP, your aeronautical weather chart ! - Copyright ORBIFLY December 2007 - Disclaimer

ORBIFLY MET'MAP TEAM :

Programming & Development : Alexandra Zaïnal
Concept & Development : Baudouin d'Aumeries
Co-Development & Prog : Marc-Olivier Méhu
Technical & hardware support : Manuel Goepfert

Contact : metmap@orbifly.com




SOURCES & CREDITS :

   NOAA